Time;durP1;ratioP1;P1;durP2;ratioP2;P2;SDS_P1;SDS_P2;PMS_P1;PMS_P2;Temp;Humidity;BMP_temperature;BMP_pressure;BME280_temperature;BME280_humidity;BME280_pressure;Samples;Min_cycle;Max_cycle;Signal;HPM_P1;HPM_P2
2023/10/20 00:00:15;;;;;;;49.60;36.20;;;10.50;99.90;;;-141.84;93.51;63861.66;5033706;28;20781;-66
2023/10/20 00:02:45;;;;;;;49.73;35.30;;;10.50;99.90;;;-141.84;93.34;65440.38;5043893;28;20240;-65
2023/10/20 00:05:13;;;;;;;50.93;37.77;;;10.50;99.90;;;-141.84;92.81;59129.22;5044503;28;20279;-66
2023/10/20 00:07:42;;;;;;;46.53;36.37;;;10.50;99.90;;;-141.84;92.58;53615.19;5044321;28;20575;-66
2023/10/20 00:10:11;;;;;;;47.80;36.50;;;10.60;99.90;;;-141.84;92.37;49419.16;5036532;28;20313;-65
2023/10/20 00:12:40;;;;;;;47.83;36.77;;;10.60;99.90;;;-141.84;92.63;52828.09;5044146;28;20229;-66
2023/10/20 00:15:13;;;;;;;47.27;36.47;;;10.60;99.90;;;-141.84;92.46;52041.16;5044357;28;20734;-67
2023/10/20 00:17:42;;;;;;;47.60;35.73;;;10.50;99.90;;;-141.84;92.29;48370.84;5044261;28;20229;-65
2023/10/20 00:20:12;;;;;;;49.37;36.33;;;10.60;99.90;;;-141.84;92.81;54927.34;5036153;28;20213;-65
2023/10/20 00:22:42;;;;;;;47.03;35.27;;;10.50;99.90;;;-141.84;92.37;49157.03;5044636;28;20233;-65
2023/10/20 00:25:12;;;;;;;47.93;36.47;;;10.60;99.90;;;-141.84;92.37;48894.97;5044558;28;20229;-66
2023/10/20 00:27:41;;;;;;;49.43;35.97;;;10.60;99.90;;;-141.84;91.84;42088.84;5043645;28;20213;-65
2023/10/20 00:30:11;;;;;;;45.50;35.57;;;10.60;99.90;;;-141.84;91.65;36755.69;5036892;28;20205;-65
2023/10/20 00:32:40;;;;;;;49.57;36.10;;;10.50;99.90;;;-141.84;91.76;38956.72;5044460;28;20241;-66
2023/10/20 00:35:13;;;;;;;48.87;36.80;;;10.60;99.90;;;-141.84;91.37;33550.31;5044148;28;20253;-66
2023/10/20 00:37:42;;;;;;;47.00;36.60;;;10.50;99.90;;;-141.84;92.17;45751.28;5043946;28;20229;-66
2023/10/20 00:40:12;;;;;;;49.40;36.73;;;10.40;99.90;;;-141.84;92.76;53352.78;5036344;28;20300;-67
2023/10/20 00:42:41;;;;;;;52.10;36.83;;;10.40;99.90;;;-141.84;92.72;53877.56;5044083;28;20689;-66
2023/10/20 00:45:10;;;;;;;51.67;37.90;;;10.40;99.90;;;-141.84;92.89;55977.41;5044218;28;20210;-66
2023/10/20 00:47:40;;;;;;;50.97;37.53;;;10.40;99.90;;;-141.84;92.21;47846.78;5043576;28;20221;-66
2023/10/20 00:50:13;;;;;;;50.87;37.80;;;10.40;99.90;;;-141.84;91.77;40063.81;5035724;28;20597;-65
2023/10/20 00:52:45;;;;;;;52.13;36.47;;;10.40;99.90;;;-141.84;91.53;35533.22;5043945;28;20712;-66
2023/10/20 00:55:15;;;;;;;51.60;36.60;;;10.40;99.90;;;-141.84;91.74;37800.94;5043431;28;20312;-66
2023/10/20 00:57:45;;;;;;;53.87;37.80;;;10.40;99.90;;;-141.84;91.75;40684.91;5042349;28;20225;-66
2023/10/20 01:00:16;;;;;;;49.87;36.17;;;10.40;99.90;;;-141.84;91.69;39212.00;5036591;28;20661;-65
2023/10/20 01:02:45;;;;;;;54.00;38.03;;;10.40;99.90;;;-141.84;91.94;42749.09;5043993;28;20233;-65
2023/10/20 01:05:19;;;;;;;56.03;36.33;;;10.40;99.90;;;-141.84;92.19;46013.16;5043136;28;20233;-66
2023/10/20 01:07:47;;;;;;;53.80;37.90;;;10.50;99.90;;;-141.84;91.96;41087.44;5043717;28;20225;-65
2023/10/20 01:10:15;;;;;;;53.43;37.53;;;10.40;99.90;;;-141.84;92.00;43984.06;5035587;28;20322;-66
2023/10/20 01:12:43;;;;;;;53.80;36.80;;;10.40;99.90;;;-141.84;92.09;46275.03;5042447;28;20265;-66
2023/10/20 01:15:15;;;;;;;53.80;37.57;;;10.40;99.90;;;-141.84;92.22;49157.03;5044313;28;20297;-65
2023/10/20 01:17:44;;;;;;;56.67;37.93;;;10.40;99.90;;;-141.84;92.23;49157.03;5043462;28;20637;-66
2023/10/20 01:20:13;;;;;;;55.37;37.70;;;10.40;99.90;;;-141.84;92.10;48370.84;5035355;28;20590;-65
2023/10/20 01:22:42;;;;;;;56.57;38.93;;;10.40;99.90;;;-141.84;92.17;46275.03;5043807;28;20237;-66
2023/10/20 01:25:12;;;;;;;51.97;37.17;;;10.40;99.90;;;-141.84;92.83;55452.34;5042410;28;20312;-66
2023/10/20 01:27:40;;;;;;;56.87;36.97;;;10.40;99.90;;;-141.84;93.24;62283.53;5041873;28;20292;-66
2023/10/20 01:30:11;;;;;;;55.47;38.90;;;10.30;99.90;;;-141.84;93.82;69916.81;5035573;28;20866;-65
2023/10/20 01:32:42;;;;;;;55.50;38.97;;;10.40;99.90;;;-141.84;93.00;64387.81;5043817;28;20263;-65
2023/10/20 01:35:11;;;;;;;56.07;37.40;;;10.40;99.90;;;-141.84;93.26;62283.53;5043334;28;20229;-65
2023/10/20 01:37:40;;;;;;;55.93;38.50;;;10.40;99.90;;;-141.84;93.42;68863.09;5042013;28;20265;-65
2023/10/20 01:40:09;;;;;;;57.03;38.83;;;10.40;99.90;;;-141.84;92.67;58078.34;5034235;28;20326;-65
2023/10/20 01:42:39;;;;;;;58.07;38.87;;;10.50;99.90;;;-141.84;92.53;52565.75;5043911;28;20229;-65
2023/10/20 01:45:10;;;;;;;54.43;37.40;;;10.50;99.90;;;-141.84;92.43;52303.44;5043629;28;20225;-66
2023/10/20 01:47:38;;;;;;;57.07;37.23;;;10.50;99.90;;;-141.84;92.60;55714.84;5043781;28;20236;-66
2023/10/20 01:50:07;;;;;;;57.10;37.37;;;10.50;99.90;;;-141.84;92.68;56765.13;5035942;28;20611;-65
2023/10/20 01:52:35;;;;;;;55.00;37.33;;;10.50;99.90;;;-141.84;92.89;57290.34;5041805;28;20256;-65
2023/10/20 01:55:04;;;;;;;60.07;39.13;;;10.50;99.90;;;-141.84;92.83;57027.72;5041786;28;20255;-66
2023/10/20 01:57:32;;;;;;;55.10;38.23;;;10.40;99.90;;;-141.84;93.23;64124.72;5043407;28;20233;-66
2023/10/20 02:00:07;;;;;;;59.67;38.27;;;10.40;99.90;;;-141.84;93.66;67809.63;5035672;28;20323;-65
2023/10/20 02:02:35;;;;;;;63.30;39.00;;;10.40;99.90;;;-141.84;93.61;69916.81;5043102;28;20234;-66
2023/10/20 02:05:05;;;;;;;56.60;37.17;;;10.40;99.90;;;-141.84;94.03;72025.13;5043186;28;20245;-66
2023/10/20 02:07:34;;;;;;;59.33;39.60;;;10.40;99.90;;;-141.84;94.58;78884.81;5043390;28;20323;-66
2023/10/20 02:10:02;;;;;;;56.07;38.00;;;10.40;99.90;;;-141.84;94.63;79677.06;5035290;28;20688;-66
2023/10/20 02:12:30;;;;;;;62.17;39.00;;;10.40;99.90;;;-141.84;93.79;73343.38;5042949;28;20252;-66
2023/10/20 02:14:58;;;;;;;58.07;38.77;;;10.40;99.90;;;-141.84;93.60;68863.09;5043228;28;20339;-66
2023/10/20 02:17:28;;;;;;;61.27;38.63;;;10.50;99.90;;;-141.84;93.49;68863.09;5042810;28;20314;-65
2023/10/20 02:19:58;;;;;;;58.30;39.27;;;10.50;99.90;;;-141.84;92.74;60443.22;5035101;28;20264;-65
2023/10/20 02:22:27;;;;;;;59.23;38.07;;;10.50;99.90;;;-141.84;92.67;56765.13;5042160;28;20228;-65
2023/10/20 02:24:55;;;;;;;55.73;38.83;;;10.50;99.90;;;-141.84;92.66;56239.94;5042042;28;20240;-67
2023/10/20 02:27:23;;;;;;;57.80;38.87;;;10.50;99.90;;;-141.84;91.92;46798.88;5042724;28;20282;-65
2023/10/20 02:29:51;;;;;;;61.57;39.57;;;10.60;99.90;;;-141.84;92.03;43861.34;5042077;28;20227;-65
2023/10/20 02:32:19;;;;;;;60.87;39.87;;;10.50;99.90;;;-141.84;92.19;50992.13;5037964;28;20319;-64
2023/10/20 02:34:49;;;;;;;58.30;39.33;;;10.60;99.90;;;-141.84;92.30;52041.16;5042529;28;20256;-65
2023/10/20 02:37:17;;;;;;;63.07;39.80;;;10.60;99.90;;;-141.84;92.55;53615.19;5042511;28;20300;-66
2023/10/20 02:39:46;;;;;;;61.90;39.57;;;10.60;99.90;;;-141.84;92.67;54140.00;5042181;28;20625;-66
2023/10/20 02:42:15;;;;;;;61.63;40.10;;;10.50;99.90;;;-141.84;92.53;52828.09;5035125;28;20846;-65
2023/10/20 02:44:43;;;;;;;61.70;39.83;;;10.60;99.90;;;-141.84;92.56;54140.00;5042620;28;20311;-65
2023/10/20 02:47:11;;;;;;;60.33;39.70;;;10.60;99.90;;;-141.84;92.49;53090.44;5041983;28;20295;-65
2023/10/20 02:49:40;;;;;;;55.50;38.07;;;10.60;99.90;;;-141.84;92.87;58341.03;5042721;28;20479;-66
2023/10/20 02:52:13;;;;;;;58.70;39.27;;;10.50;99.90;;;-141.84;93.65;67019.72;5035009;28;20320;-66
2023/10/20 02:54:41;;;;;;;59.37;39.30;;;10.50;99.90;;;-141.84;93.45;70180.31;5042094;28;20214;-66
2023/10/20 02:57:09;;;;;;;58.63;40.03;;;10.60;99.90;;;-141.84;93.45;69653.38;5042674;28;20205;-65
2023/10/20 02:59:37;;;;;;;62.45;40.80;;;10.60;99.90;;;-141.84;93.35;69916.81;5042071;28;20233;-67
2023/10/20 03:02:06;;;;;;;61.90;40.50;;;10.60;99.90;;;-141.84;93.60;69126.50;5035140;28;20231;-65
2023/10/20 03:04:34;;;;;;;58.23;38.80;;;10.60;99.90;;;-141.84;93.98;72288.75;5042112;28;20712;-65
2023/10/20 03:07:03;;;;;;;58.23;40.20;;;10.60;99.90;;;-141.84;93.31;67019.72;5042583;28;20332;-66
2023/10/20 03:09:32;;;;;;;59.03;39.03;;;10.60;99.90;;;-141.84;93.09;62809.50;5042691;28;20659;-65
2023/10/20 03:12:00;;;;;;;61.90;40.10;;;10.60;99.90;;;-141.84;93.00;60968.94;5034347;28;20704;-66
2023/10/20 03:14:28;;;;;;;59.73;39.03;;;10.60;99.90;;;-141.84;93.03;61757.66;5042330;28;20256;-65
2023/10/20 03:16:57;;;;;;;63.87;40.83;;;10.60;99.90;;;-141.84;92.70;58603.75;5042120;28;20237;-66
2023/10/20 03:19:25;;;;;;;60.07;39.03;;;10.70;99.90;;;-141.84;92.93;59654.75;5041986;28;20225;-65
2023/10/20 03:21:53;;;;;;;64.17;39.50;;;10.60;99.90;;;-141.84;93.81;69389.94;5039822;28;20212;-65
2023/10/20 03:24:21;;;;;;;61.10;39.93;;;10.60;99.90;;;-141.84;93.03;61494.72;5039837;28;20233;-65
2023/10/20 03:26:51;;;;;;;63.47;40.57;;;10.70;99.90;;;-141.84;92.92;60706.06;5041791;28;20278;-65
2023/10/20 03:29:19;;;;;;;68.00;41.40;;;10.70;99.90;;;-141.84;93.38;66493.19;5042364;28;20327;-66
2023/10/20 03:31:47;;;;;;;65.57;41.10;;;10.60;99.90;;;-141.84;93.46;68336.31;5042012;28;20224;-65
2023/10/20 03:34:15;;;;;;;62.33;40.07;;;10.60;99.90;;;-141.84;93.75;72816.03;5034046;28;20817;-65
2023/10/20 03:36:44;;;;;;;63.80;40.17;;;10.60;99.90;;;-141.84;93.45;69653.38;5044722;28;20686;-66
2023/10/20 03:39:19;;;;;;;61.70;38.17;;;10.60;99.90;;;-141.84;93.92;71497.94;5046649;28;20296;-66
2023/10/20 03:41:49;;;;;;;63.87;39.73;;;10.50;99.90;;;-141.84;93.59;72025.13;5045944;28;20224;-66
2023/10/20 03:44:21;;;;;;;64.77;39.67;;;10.50;99.90;;;-141.84;93.65;70970.84;5038012;28;20256;-65
2023/10/20 03:46:49;;;;;;;64.67;39.50;;;10.60;99.90;;;-141.84;93.85;73343.38;5045989;28;20528;-65
2023/10/20 03:49:18;;;;;;;72.00;41.03;;;10.50;99.90;;;-141.84;94.02;75189.69;5046372;28;20299;-66
2023/10/20 03:51:49;;;;;;;68.50;39.97;;;10.50;99.90;;;-141.84;94.10;75189.69;5045847;28;20245;-65
2023/10/20 03:54:18;;;;;;;65.30;39.63;;;10.40;99.90;;;-141.84;93.97;74662.09;5039898;28;20233;-65
2023/10/20 03:56:46;;;;;;;61.07;38.53;;;10.40;99.90;;;-141.84;94.08;76508.97;5045744;28;20313;-65
2023/10/20 03:59:16;;;;;;;59.47;36.87;;;10.40;99.90;;;-141.84;93.84;74398.31;5039548;28;20656;-66
2023/10/20 04:01:45;;;;;;;64.97;37.53;;;10.40;99.90;;;-141.84;94.11;74398.31;5044927;28;20229;-66
2023/10/20 04:04:14;;;;;;;70.13;37.67;;;10.30;99.90;;;-141.84;94.21;77828.72;5037761;28;20229;-66
2023/10/20 04:06:43;;;;;;;66.57;38.97;;;10.30;99.90;;;-141.84;94.06;75717.34;5044682;28;20248;-65
2023/10/20 04:09:12;;;;;;;63.30;36.70;;;10.30;99.90;;;-141.84;94.05;75189.69;5045471;28;20497;-66
2023/10/20 04:11:40;;;;;;;65.40;37.07;;;10.30;99.90;;;-141.84;94.22;77036.81;5044439;28;20630;-68
2023/10/20 04:14:09;;;;;;;62.57;36.93;;;10.30;99.90;;;-141.84;94.61;80997.84;5035911;28;20315;-66
2023/10/20 04:16:39;;;;;;;64.67;36.70;;;10.30;99.90;;;-141.84;94.83;83112.00;5045974;28;20861;-66
2023/10/20 04:19:12;;;;;;;65.03;36.50;;;10.20;99.90;;;-141.84;95.49;86814.44;5045343;28;20225;-66
2023/10/20 04:21:43;;;;;;;62.00;36.87;;;10.20;99.90;;;-141.84;94.90;84169.50;5045551;28;20300;-65
2023/10/20 04:24:11;;;;;;;64.90;35.73;;;10.20;99.90;;;-141.84;94.76;82583.34;5037477;28;20220;-66
2023/10/20 04:26:42;;;;;;;62.60;35.87;;;10.20;99.90;;;-141.84;94.54;81262.06;5025383;28;20236;-66
2023/10/20 04:29:33;;;;;;;57.33;35.20;;;10.20;99.90;;;-141.84;94.96;83376.34;5024704;28;20603;-65
2023/10/20 04:54:41;;;;;;;47.17;27.80;;;10.00;99.90;;;-141.84;94.10;77036.81;5042577;27;20612;-66
2023/10/20 04:57:35;;;;;;;46.10;28.00;;;10.00;99.90;;;-141.84;93.93;71761.53;5020674;28;20213;-66
2023/10/20 05:02:58;;;;;;;43.40;26.40;;;9.90;99.90;;;-141.84;93.94;73343.38;5020771;28;20268;-65
2023/10/20 05:05:33;;;;;;;43.70;26.93;;;9.90;99.90;;;-141.84;94.27;76508.97;5020304;28;20240;-65
2023/10/20 05:08:05;;;;;;;42.63;25.33;;;9.80;99.90;;;-141.84;94.00;76245.09;5012067;28;20225;-66
2023/10/20 05:10:35;;;;;;;44.33;25.43;;;9.80;99.90;;;-141.84;93.90;73607.09;5019741;28;20261;-65
2023/10/20 05:13:03;;;;;;;41.53;25.27;;;9.70;99.90;;;-141.84;94.18;75453.50;5019473;28;20229;-66
2023/10/20 05:15:36;;;;;;;40.77;24.27;;;9.70;99.90;;;-141.84;93.99;74134.56;5003004;28;20250;-66
2023/10/20 05:18:05;;;;;;;42.10;24.37;;;9.70;99.90;;;-141.84;94.17;75981.22;5012125;28;20253;-65
2023/10/20 05:20:36;;;;;;;39.07;24.30;;;9.60;99.90;;;-141.84;94.22;77036.81;5020410;28;20252;-65
2023/10/20 05:23:05;;;;;;;37.87;24.47;;;9.60;99.90;;;-141.84;94.14;77036.81;5020172;28;20242;-66
2023/10/20 05:25:35;;;;;;;42.30;24.13;;;9.60;99.90;;;-141.84;93.84;74134.56;5027016;28;20233;-64
2023/10/20 05:28:05;;;;;;;43.40;25.33;;;9.60;99.90;;;-141.84;93.92;75189.69;5030895;28;20229;-66
2023/10/20 05:30:33;;;;;;;39.27;24.57;;;9.60;99.90;;;-141.84;94.18;75981.22;5039567;28;20205;-65
2023/10/20 05:33:02;;;;;;;41.50;25.03;;;9.60;99.90;;;-141.84;93.87;73607.09;5039164;28;20259;-66
2023/10/20 05:35:30;;;;;;;42.73;25.43;;;9.50;99.90;;;-141.84;93.79;73870.81;5039510;28;20626;-65
2023/10/20 05:37:58;;;;;;;38.00;22.90;;;9.50;99.90;;;-141.84;94.31;76772.88;5032323;28;20352;-65
2023/10/20 05:40:27;;;;;;;44.73;25.43;;;9.50;99.90;;;-141.84;94.15;77300.78;5039175;28;20260;-65
2023/10/20 05:42:56;;;;;;;41.53;24.83;;;9.50;99.90;;;-141.84;94.29;78356.72;5038674;28;20205;-67
2023/10/20 05:45:24;;;;;;;40.37;24.67;;;9.50;99.90;;;-141.84;94.60;80469.50;5039446;28;20240;-65
2023/10/20 05:47:53;;;;;;;42.70;25.63;;;9.50;99.90;;;-141.84;94.91;84433.91;5037922;28;20230;-66
2023/10/20 05:50:21;;;;;;;42.93;24.97;;;9.50;99.90;;;-141.84;94.58;82319.06;5036664;28;20229;-65
2023/10/20 05:52:52;;;;;;;39.83;25.80;;;9.50;99.90;;;-141.84;94.75;81262.06;5038962;28;20885;-65
2023/10/20 05:55:20;;;;;;;44.87;26.23;;;9.50;99.90;;;-141.84;94.35;80205.34;5039307;28;20279;-65
2023/10/20 05:57:49;;;;;;;40.97;25.23;;;9.50;99.90;;;-141.84;94.17;77300.78;5038483;28;20284;-66
2023/10/20 06:00:19;;;;;;;43.00;25.67;;;9.50;99.90;;;-141.84;94.19;75981.22;5030935;28;20236;-66
2023/10/20 06:02:47;;;;;;;41.17;25.57;;;9.50;99.90;;;-141.84;94.39;77564.72;5038761;28;20272;-65
2023/10/20 06:05:16;;;;;;;40.57;25.33;;;9.50;99.90;;;-141.84;94.22;75717.34;5028323;28;20614;-65
2023/10/20 06:07:45;;;;;;;44.33;26.37;;;9.50;99.90;;;-141.84;94.37;78092.72;5025505;28;20230;-65
2023/10/20 06:10:13;;;;;;;45.00;27.23;;;9.40;99.90;;;-141.84;94.38;78620.75;5017878;28;20340;-65
2023/10/20 06:12:42;;;;;;;38.87;25.77;;;9.50;99.90;;;-141.84;94.45;78620.75;5024364;28;20241;-65
2023/10/20 06:15:11;;;;;;;43.07;25.87;;;9.50;99.90;;;-141.84;94.25;78356.72;5024351;28;20749;-66
2023/10/20 06:17:41;;;;;;;41.97;26.33;;;9.50;99.90;;;-141.84;94.17;77828.72;5025212;28;20233;-65
2023/10/20 06:20:10;;;;;;;43.30;25.57;;;9.50;99.90;;;-141.84;93.81;73607.09;5017456;28;20316;-66
2023/10/20 06:22:38;;;;;;;39.50;25.20;;;9.50;99.90;;;-141.84;93.91;73079.69;5026632;28;20336;-66
2023/10/20 06:25:12;;;;;;;44.60;26.47;;;9.50;99.90;;;-141.84;93.90;73079.69;5024947;28;20611;-65
2023/10/20 06:27:43;;;;;;;42.40;25.87;;;9.50;99.90;;;-141.84;94.06;73079.69;5024978;28;20229;-65
2023/10/20 06:30:21;;;;;;;39.10;26.57;;;9.50;99.90;;;-141.84;93.70;72552.38;5016343;28;20213;-66
2023/10/20 06:33:14;;;;;;;39.70;25.13;;;9.50;99.90;;;-141.84;93.54;69916.81;5024299;28;20236;-66
2023/10/20 06:35:50;;;;;;;41.17;26.17;;;9.60;99.90;;;-141.84;93.21;65703.56;5024820;28;20632;-65
2023/10/20 06:38:30;;;;;;;40.37;25.60;;;9.60;99.90;;;-141.84;93.08;64387.81;5020068;28;20584;-65
2023/10/20 06:40:58;;;;;;;38.07;25.37;;;9.60;99.90;;;-141.84;93.05;63598.59;5025179;28;20221;-65
2023/10/20 06:43:26;;;;;;;41.53;25.83;;;9.60;99.90;;;-141.84;93.43;65440.38;5024746;28;20238;-66
2023/10/20 06:46:00;;;;;;;37.13;25.40;;;9.50;99.90;;;-141.84;93.64;69126.50;5020041;28;20294;-65
2023/10/20 06:48:30;;;;;;;38.97;25.17;;;9.50;99.90;;;-141.84;93.25;66493.19;5025446;28;20208;-65
2023/10/20 06:50:58;;;;;;;39.33;25.53;;;9.50;99.90;;;-141.84;93.33;66229.97;5024437;28;20243;-66
2023/10/20 06:53:28;;;;;;;38.37;25.13;;;9.60;99.90;;;-141.84;93.07;63861.66;5024810;28;20238;-65
2023/10/20 06:55:58;;;;;;;38.50;25.40;;;9.60;99.90;;;-141.84;93.35;64124.72;5016300;28;20610;-64
2023/10/20 06:58:31;;;;;;;36.90;24.60;;;9.50;99.90;;;-141.84;93.30;66493.19;5004404;28;20237;-65
2023/10/20 07:01:05;;;;;;;39.03;25.80;;;9.50;99.90;;;-141.84;93.13;65966.75;5015395;28;20313;-65
2023/10/20 07:03:35;;;;;;;37.03;24.87;;;9.50;99.90;;;-141.84;92.89;63598.59;5024514;28;20212;-65
2023/10/20 07:06:07;;;;;;;35.40;24.13;;;9.50;99.90;;;-141.84;92.68;59917.56;5016634;28;20230;-65
2023/10/20 07:08:36;;;;;;;36.30;24.00;;;9.50;99.90;;;-141.84;92.73;58078.34;5024413;28;20489;-66
2023/10/20 07:11:05;;;;;;;36.40;24.70;;;9.50;99.90;;;-141.84;92.80;61757.66;5024349;28;20241;-64
2023/10/20 07:13:33;;;;;;;35.27;23.67;;;9.50;99.90;;;-141.84;92.68;57290.34;5022588;28;20287;-65
2023/10/20 07:16:02;;;;;;;36.73;24.37;;;9.50;99.90;;;-141.84;93.09;63335.53;5005804;28;20852;-65
2023/10/20 07:18:30;;;;;;;35.27;24.77;;;9.50;99.90;;;-141.84;92.20;53615.19;5024587;28;20233;-64
2023/10/20 07:21:00;;;;;;;34.73;24.53;;;9.60;99.90;;;-141.84;92.07;51516.59;5023677;28;20638;-66
2023/10/20 07:23:28;;;;;;;33.87;23.90;;;9.50;99.90;;;-141.84;92.14;49943.41;5023985;28;20238;-66
2023/10/20 07:25:56;;;;;;;34.13;23.80;;;9.60;99.90;;;-141.84;91.56;42182.88;5016619;28;20278;-65
2023/10/20 07:28:25;;;;;;;34.43;24.70;;;9.60;99.90;;;-141.84;91.92;45468.94;5023736;28;20287;-66
2023/10/20 07:30:54;;;;;;;34.43;23.87;;;9.60;99.90;;;-141.84;92.03;49157.03;5023632;28;20210;-64
2023/10/20 07:33:22;;;;;;;32.63;23.03;;;9.60;99.90;;;-141.84;91.79;47846.78;5024184;28;20214;-65
2023/10/20 07:35:52;;;;;;;33.30;23.33;;;9.60;99.90;;;-141.84;91.39;40149.63;5007998;28;20320;-65
2023/10/20 07:38:22;;;;;;;38.97;24.10;;;9.60;99.90;;;-141.84;91.51;37549.81;5001307;28;20322;-65
2023/10/20 07:40:50;;;;;;;30.93;22.90;;;9.60;99.90;;;-141.84;91.12;34404.97;5004059;28;20595;-65
2023/10/20 07:43:19;;;;;;;31.93;23.00;;;9.70;99.90;;;-141.84;91.03;31350.28;5003484;28;20288;-65
2023/10/20 07:45:49;;;;;;;31.23;21.53;;;9.70;99.90;;;-141.84;90.89;30746.97;5003586;28;20250;-66
2023/10/20 07:48:18;;;;;;;30.23;22.47;;;9.70;99.90;;;-141.84;91.28;35427.13;4997617;28;20265;-67
2023/10/20 07:50:46;;;;;;;31.33;22.20;;;9.70;99.90;;;-141.84;90.99;32708.06;5003888;28;20223;-65
2023/10/20 07:53:15;;;;;;;30.90;21.77;;;9.70;99.90;;;-141.84;90.98;31951.66;5003502;28;20230;-65
2023/10/20 07:55:44;;;;;;;27.77;21.50;;;9.70;99.90;;;-141.84;90.93;31462.41;4999300;28;20316;-65
2023/10/20 07:58:12;;;;;;;29.73;21.27;;;9.70;99.90;;;-141.84;90.34;28833.72;4982640;28;20605;-66
2023/10/20 08:00:41;;;;;;;30.20;22.10;;;9.70;99.90;;;-141.84;90.55;27851.97;4991594;28;20298;-65
2023/10/20 08:03:11;;;;;;;29.00;20.83;;;9.70;99.90;;;-141.84;90.59;28619.81;4987823;28;20290;-65
2023/10/20 08:05:40;;;;;;;28.30;21.37;;;9.80;99.90;;;-141.84;90.23;26253.59;4991147;28;20226;-66
2023/10/20 08:08:09;;;;;;;29.63;22.13;;;9.80;99.90;;;-141.84;89.92;24574.50;4983583;28;20653;-65
2023/10/20 08:10:38;;;;;;;27.73;21.90;;;9.90;99.90;;;-141.84;89.68;23563.31;5002274;28;20222;-65
2023/10/20 08:13:09;;;;;;;29.10;21.30;;;9.90;99.90;;;-141.84;89.63;23317.16;5003021;28;20585;-65
2023/10/20 08:15:38;;;;;;;27.60;21.23;;;9.90;99.90;;;-141.84;89.52;23317.16;5003690;28;20222;-66
2023/10/20 08:18:08;;;;;;;26.93;20.63;;;9.90;99.90;;;-141.84;89.29;22780.19;4995795;28;20246;-65
2023/10/20 08:20:36;;;;;;;28.67;20.90;;;10.00;99.90;;;-141.84;89.43;22440.53;5003420;28;20229;-65
2023/10/20 08:23:05;;;;;;;27.47;20.53;;;10.00;99.90;;;-141.84;89.38;22507.66;5003657;28;20227;-65
2023/10/20 08:25:37;;;;;;;25.60;19.73;;;10.00;99.90;;;-141.84;88.91;22037.88;5003417;28;20234;-66
2023/10/20 08:28:08;;;;;;;25.87;19.73;;;10.10;99.90;;;-141.84;88.26;21068.00;4995203;28;20631;-65
2023/10/20 08:30:36;;;;;;;25.30;20.00;;;10.20;99.90;;;-141.84;87.87;20860.66;5003537;28;20215;-65
2023/10/20 08:33:05;;;;;;;26.03;19.40;;;10.20;99.90;;;-141.84;88.23;20878.94;4984047;28;20227;-64
2023/10/20 08:35:34;;;;;;;22.43;19.20;;;10.10;99.90;;;-141.84;88.22;20911.47;4998719;28;20768;-65
2023/10/20 08:38:03;;;;;;;26.17;19.93;;;10.10;99.90;;;-141.84;88.12;20777.28;4995649;28;20226;-66
2023/10/20 08:40:34;;;;;;;24.07;19.37;;;10.20;99.90;;;-141.84;87.96;20769.16;5001530;28;20309;-65
2023/10/20 08:43:19;;;;;;;24.23;18.77;;;10.20;99.90;;;-141.84;87.60;20533.34;5003390;28;20237;-64
2023/10/20 08:45:48;;;;;;;24.87;19.03;;;10.20;99.90;;;-141.84;87.94;20724.44;4986797;28;20202;-64
2023/10/20 08:48:17;;;;;;;23.93;19.83;;;10.20;99.90;;;-141.84;87.51;20403.25;4994997;28;20213;-65
2023/10/20 08:50:49;;;;;;;24.43;18.87;;;10.30;99.90;;;-141.84;87.66;20447.97;5002946;28;20227;-66
2023/10/20 08:53:22;;;;;;;24.67;20.20;;;10.30;99.90;;;-141.84;87.58;20425.63;5002974;28;20711;-67
2023/10/20 08:55:50;;;;;;;25.00;20.30;;;10.30;99.90;;;-141.84;87.41;20352.44;5002298;28;20234;-66
2023/10/20 08:58:22;;;;;;;24.70;20.17;;;10.30;99.90;;;-141.84;86.98;20267.09;4998532;28;20245;-68
2023/10/20 09:00:53;;;;;;;25.50;19.07;;;10.30;99.90;;;-141.84;86.97;20191.88;5002789;28;20626;-65
2023/10/20 09:03:28;;;;;;;26.17;19.57;;;10.30;99.90;;;-141.84;87.02;20240.66;5003183;28;20242;-66
2023/10/20 09:06:05;;;;;;;26.53;20.27;;;10.30;99.90;;;-141.84;87.17;20248.78;4994827;28;20250;-65
2023/10/20 09:08:34;;;;;;;26.60;21.03;;;10.30;99.90;;;-141.84;86.91;20197.97;5002958;28;20273;-65
2023/10/20 09:11:03;;;;;;;27.67;21.67;;;10.30;99.90;;;-141.84;86.94;20218.31;4999209;28;20369;-65
2023/10/20 09:13:36;;;;;;;29.60;21.27;;;10.30;99.90;;;-141.84;86.72;20055.69;5003036;28;20258;-65
2023/10/20 09:16:08;;;;;;;25.37;19.97;;;10.30;99.90;;;-141.84;86.70;20153.25;4995092;28;20238;-66
2023/10/20 09:18:48;;;;;;;26.70;20.73;;;10.30;99.90;;;-141.84;86.46;20043.50;5003255;28;20584;-65
2023/10/20 09:21:19;;;;;;;28.83;20.87;;;10.30;99.90;;;-141.84;86.12;19994.72;5002672;28;20218;-66
2023/10/20 09:23:55;;;;;;;28.13;21.10;;;10.30;99.90;;;-141.84;86.50;20006.91;4990397;28;20277;-65
2023/10/20 09:26:24;;;;;;;28.00;22.40;;;10.30;99.90;;;-141.84;86.38;20035.38;4997586;28;20265;-64
2023/10/20 09:28:56;;;;;;;26.90;21.67;;;10.30;99.90;;;-141.84;86.36;20027.25;5002793;28;20237;-66
2023/10/20 09:31:27;;;;;;;26.73;21.27;;;10.30;99.90;;;-141.84;86.46;20010.97;5003166;28;20708;-65
2023/10/20 09:33:56;;;;;;;26.00;21.03;;;10.20;99.90;;;-141.84;86.62;20037.41;4994586;28;20691;-64
2023/10/20 09:36:25;;;;;;;27.60;21.37;;;10.20;99.90;;;-141.84;86.55;20069.94;5002718;28;20231;-65
2023/10/20 09:38:57;;;;;;;29.07;22.17;;;10.20;99.90;;;-141.84;86.82;20094.31;5002646;28;20642;-67
2023/10/20 09:41:28;;;;;;;33.37;22.10;;;10.10;99.90;;;-141.84;87.04;20163.41;5005957;28;20226;-66
2023/10/20 09:44:05;;;;;;;30.63;22.63;;;10.10;99.90;;;-141.84;86.92;20134.97;4999616;28;21071;-64
2023/10/20 09:46:49;;;;;;;29.10;22.50;;;10.10;99.90;;;-141.84;87.17;20163.41;5006386;28;20230;-65
2023/10/20 09:49:24;;;;;;;32.23;23.43;;;10.10;99.90;;;-141.84;87.32;20287.41;5005580;28;20257;-66
2023/10/20 09:51:54;;;;;;;33.87;23.07;;;10.10;99.90;;;-141.84;87.20;20267.09;5005369;28;20285;-65
2023/10/20 09:54:27;;;;;;;28.00;22.17;;;10.00;99.90;;;-141.84;87.44;20285.38;5003902;28;20226;-66
2023/10/20 09:56:57;;;;;;;31.87;24.03;;;10.10;99.90;;;-141.84;87.66;20464.25;5005465;28;20261;-67
2023/10/20 09:59:30;;;;;;;30.37;23.43;;;10.10;99.90;;;-141.84;87.40;20348.38;5006205;28;20225;-66
2023/10/20 10:02:00;;;;;;;28.93;21.97;;;10.10;99.90;;;-141.84;87.36;20393.09;4997945;28;20238;-65
2023/10/20 10:04:33;;;;;;;32.33;23.23;;;10.00;99.90;;;-141.84;87.21;20285.38;5005879;28;20246;-66
2023/10/20 10:07:04;;;;;;;33.10;23.07;;;10.00;99.90;;;-141.84;87.92;20543.53;5005514;28;20778;-66
2023/10/20 10:09:38;;;;;;;32.97;23.67;;;10.00;99.90;;;-141.84;88.02;20736.63;5005961;28;20206;-65
2023/10/20 10:12:14;;;;;;;30.13;22.67;;;10.00;99.90;;;-141.84;88.33;20964.31;4976418;28;20628;-66
2023/10/20 10:14:55;;;;;;;30.60;22.70;;;9.90;99.90;;;-141.84;88.73;21265.22;5002809;28;20256;-64
2023/10/20 10:17:26;;;;;;;34.27;24.47;;;9.90;99.90;;;-141.84;89.28;22377.47;5004960;28;20223;-66
2023/10/20 10:19:58;;;;;;;33.70;22.83;;;9.90;99.90;;;-141.84;89.52;23302.94;5002610;28;20230;-66
2023/10/20 10:22:30;;;;;;;31.80;22.00;;;9.70;99.90;;;-141.84;89.54;23660.97;5005522;28;20280;-65
2023/10/20 10:25:01;;;;;;;31.57;21.60;;;9.80;99.90;;;-141.84;90.02;25154.47;5004748;28;20249;-65
2023/10/20 10:27:32;;;;;;;30.03;21.67;;;9.80;99.90;;;-141.84;89.96;25370.19;5005828;28;20285;-66
2023/10/20 10:30:05;;;;;;;31.23;21.97;;;9.90;99.90;;;-141.84;90.22;28487.41;4998195;28;20317;-67
2023/10/20 10:32:44;;;;;;;29.97;22.10;;;9.90;99.90;;;-141.84;90.38;28613.72;5005319;28;20246;-66